createdAt,value
2022-11-26T00:01:01.350Z,14.73
2022-11-26T00:03:47.306Z,18.25
2022-11-26T00:06:39.326Z,24.42
2022-11-26T00:09:25.096Z,23.73
2022-11-26T00:12:22.057Z,28.00
2022-11-26T00:15:26.722Z,29.50
2022-11-26T00:18:13.053Z,23.98
2022-11-26T00:21:01.082Z,26.60
2022-11-26T00:23:46.176Z,24.77
2022-11-26T00:26:32.251Z,23.98
2022-11-26T00:29:17.538Z,24.90
2022-11-26T00:32:02.773Z,25.77
2022-11-26T00:34:48.167Z,21.33
2022-11-26T00:37:40.931Z,22.17
2022-11-26T00:40:28.810Z,22.15
2022-11-26T00:43:15.515Z,32.10
2022-11-26T00:46:00.612Z,25.50
2022-11-26T00:48:45.945Z,23.73
2022-11-26T00:51:31.256Z,24.05
2022-11-26T00:54:18.490Z,24.73
2022-11-26T00:57:03.662Z,25.75
2022-11-26T00:59:48.847Z,25.27
2022-11-26T01:02:33.773Z,25.45
2022-11-26T01:05:20.352Z,29.02
2022-11-26T01:08:20.457Z,35.53
2022-11-26T01:11:05.951Z,36.25
2022-11-26T01:13:52.727Z,30.50
2022-11-26T01:16:42.073Z,35.30
2022-11-26T01:19:27.289Z,39.20
2022-11-26T01:22:21.083Z,39.22
2022-11-26T01:25:06.611Z,33.95
2022-11-26T01:27:52.545Z,36.17
2022-11-26T01:30:38.095Z,35.00
2022-11-26T01:33:23.353Z,30.67
2022-11-26T01:36:28.007Z,37.05
2022-11-26T01:39:19.819Z,29.80
2022-11-26T01:42:32.748Z,29.42
2022-11-26T01:45:20.538Z,35.85
2022-11-26T01:48:28.331Z,31.42
2022-11-26T01:51:15.465Z,34.38
2022-11-26T01:54:00.982Z,34.60
2022-11-26T01:56:52.713Z,30.98
2022-11-26T01:59:42.056Z,27.00
2022-11-26T02:02:29.826Z,22.75
2022-11-26T02:05:20.733Z,26.10
2022-11-26T02:08:06.755Z,25.10
2022-11-26T02:10:52.466Z,24.25
2022-11-26T02:13:37.281Z,23.67
2022-11-26T02:16:40.022Z,23.05
2022-11-26T02:19:49.764Z,24.17
2022-11-26T02:22:43.574Z,27.45
2022-11-26T02:26:07.722Z,33.92
2022-11-26T02:29:20.479Z,35.80
2022-11-26T02:32:13.839Z,33.70
2022-11-26T02:35:06.566Z,29.08
2022-11-26T02:37:55.901Z,28.17
2022-11-26T02:40:41.425Z,27.58
2022-11-26T02:43:27.089Z,29.65
2022-11-26T02:46:18.487Z,33.97
2022-11-26T02:49:04.227Z,33.05
2022-11-26T02:51:54.502Z,30.75
2022-11-26T02:54:41.438Z,35.45
2022-11-26T02:57:30.494Z,32.17
2022-11-26T03:00:16.681Z,31.48
2022-11-26T03:03:08.764Z,31.40
2022-11-26T03:05:58.122Z,32.38
2022-11-26T03:08:45.269Z,26.50
2022-11-26T03:11:30.530Z,25.67
2022-11-26T03:14:15.747Z,22.73
2022-11-26T03:17:00.731Z,29.65
2022-11-26T03:19:46.541Z,25.60
2022-11-26T03:22:31.655Z,32.40
2022-11-26T03:25:16.935Z,27.33
2022-11-26T03:28:02.881Z,33.25
2022-11-26T03:30:50.994Z,27.73
2022-11-26T03:33:35.880Z,37.30
2022-11-26T03:36:21.964Z,36.38
2022-11-26T03:39:07.074Z,33.67
2022-11-26T03:41:52.282Z,31.98
2022-11-26T03:44:37.556Z,31.75
2022-11-26T03:47:22.715Z,28.85
2022-11-26T03:50:08.820Z,29.00
2022-11-26T03:52:53.719Z,30.90
2022-11-26T03:55:38.880Z,26.30
2022-11-26T03:58:23.828Z,28.25
2022-11-26T04:01:12.879Z,32.63
2022-11-26T04:03:58.003Z,33.38
2022-11-26T04:06:43.312Z,34.53
2022-11-26T04:09:28.222Z,27.45
2022-11-26T04:12:13.282Z,30.80
2022-11-26T04:14:58.333Z,33.55
2022-11-26T04:17:43.243Z,28.52
2022-11-26T04:20:28.628Z,24.73
2022-11-26T04:23:13.874Z,24.05
2022-11-26T04:25:58.836Z,23.20
2022-11-26T04:28:44.526Z,22.67
2022-11-26T04:31:29.652Z,26.65
2022-11-26T04:34:14.797Z,27.83
2022-11-26T04:36:59.802Z,21.50
2022-11-26T04:39:44.828Z,22.77
2022-11-26T04:42:29.812Z,23.73
2022-11-26T04:45:15.257Z,23.15
2022-11-26T04:48:00.520Z,27.75
2022-11-26T04:50:45.861Z,32.15
2022-11-26T04:53:31.222Z,27.05
2022-11-26T04:56:16.404Z,25.52
2022-11-26T04:59:01.444Z,28.60
2022-11-26T05:01:47.442Z,22.80
2022-11-26T05:04:32.840Z,24.60
2022-11-26T05:07:18.043Z,24.65
2022-11-26T05:10:05.000Z,28.33
2022-11-26T05:12:50.198Z,28.10
2022-11-26T05:15:35.469Z,28.13
2022-11-26T05:18:20.776Z,24.85
2022-11-26T05:21:06.649Z,23.10
2022-11-26T05:23:51.944Z,24.35
2022-11-26T05:26:37.120Z,25.67
2022-11-26T05:29:22.306Z,28.52
2022-11-26T05:32:07.452Z,26.60
2022-11-26T05:34:55.679Z,24.02
2022-11-26T05:37:43.529Z,26.45
2022-11-26T05:40:28.889Z,30.15
2022-11-26T05:43:14.009Z,30.20
2022-11-26T05:46:07.675Z,27.58
2022-11-26T05:48:53.105Z,28.55
2022-11-26T05:51:38.320Z,35.03
2022-11-26T05:54:23.288Z,31.35
2022-11-26T05:57:08.618Z,28.88
2022-11-26T05:59:53.906Z,24.50
2022-11-26T06:02:39.616Z,21.88
2022-11-26T06:05:24.760Z,32.90
2022-11-26T06:08:10.062Z,25.88
2022-11-26T06:10:55.322Z,26.90
2022-11-26T06:13:40.565Z,24.15
2022-11-26T06:16:25.592Z,28.77
2022-11-26T06:19:11.568Z,28.80
2022-11-26T06:21:56.559Z,23.88
2022-11-26T06:24:41.540Z,28.30
2022-11-26T06:27:26.552Z,28.27
2022-11-26T06:30:12.246Z,22.38
2022-11-26T06:32:57.331Z,19.77
2022-11-26T06:35:42.392Z,22.10
2022-11-26T06:38:28.231Z,24.88
2022-11-26T06:41:13.641Z,23.52
2022-11-26T06:43:59.986Z,27.65
2022-11-26T06:46:45.179Z,20.95
2022-11-26T06:49:30.781Z,21.30
2022-11-26T06:52:15.685Z,20.92
2022-11-26T06:55:00.744Z,23.05
2022-11-26T06:57:49.532Z,16.48
2022-11-26T07:00:34.717Z,17.02
2022-11-26T07:03:23.784Z,21.77
2022-11-26T07:06:23.962Z,22.27
2022-11-26T07:09:10.511Z,22.85
2022-11-26T07:11:55.584Z,24.13
2022-11-26T07:14:40.656Z,21.48
2022-11-26T07:17:27.965Z,26.80
2022-11-26T07:20:14.193Z,26.02
2022-11-26T07:22:59.336Z,20.17
2022-11-26T07:25:44.541Z,22.35
2022-11-26T07:28:30.039Z,20.92
2022-11-26T07:31:18.684Z,20.90
2022-11-26T07:34:04.078Z,31.13
2022-11-26T07:36:49.623Z,19.70
2022-11-26T07:39:34.877Z,25.42
2022-11-26T07:42:20.247Z,20.58
2022-11-26T07:45:05.763Z,21.15
2022-11-26T07:47:51.017Z,22.38
2022-11-26T07:50:36.181Z,25.15
2022-11-26T07:53:21.169Z,25.20
2022-11-26T07:56:06.569Z,23.73
2022-11-26T07:58:52.049Z,30.83
2022-11-26T08:01:37.364Z,36.33
2022-11-26T08:04:22.510Z,23.10
2022-11-26T08:07:07.950Z,24.00
2022-11-26T08:09:52.899Z,19.67
2022-11-26T08:12:37.993Z,21.73
2022-11-26T08:15:23.253Z,19.80
2022-11-26T08:18:08.508Z,18.20
2022-11-26T08:20:58.007Z,18.20
2022-11-26T08:26:35.075Z,18.80
2022-11-26T08:29:21.415Z,18.08
2022-11-26T08:32:06.577Z,13.10
2022-11-26T08:34:51.793Z,12.50
2022-11-26T08:37:36.819Z,12.95
2022-11-26T08:40:21.718Z,14.30
2022-11-26T08:43:09.852Z,15.32
2022-11-26T08:45:57.013Z,15.10
2022-11-26T08:48:42.435Z,13.32
2022-11-26T08:51:27.421Z,13.63
2022-11-26T08:54:12.803Z,11.82
2022-11-26T08:56:58.151Z,13.68
2022-11-26T08:59:43.386Z,16.58
2022-11-26T09:02:28.379Z,14.55
2022-11-26T09:05:13.622Z,14.07
2022-11-26T09:07:58.932Z,17.83
2022-11-26T09:10:53.496Z,16.92
2022-11-26T09:13:38.395Z,12.98
2022-11-26T09:16:24.531Z,14.75
2022-11-26T09:19:12.167Z,18.50
2022-11-26T09:21:58.557Z,21.15
2022-11-26T09:24:43.898Z,14.10
2022-11-26T09:27:29.009Z,18.95
2022-11-26T09:30:16.161Z,18.60
2022-11-26T09:33:01.466Z,15.88
2022-11-26T09:35:46.588Z,15.25
2022-11-26T09:38:31.755Z,13.75
2022-11-26T09:41:32.263Z,18.33
2022-11-26T09:44:26.487Z,18.08
2022-11-26T09:47:17.635Z,14.48
2022-11-26T09:50:17.519Z,15.93
2022-11-26T09:53:12.936Z,15.25
2022-11-26T09:56:00.561Z,15.13
2022-11-26T09:58:49.876Z,16.42
2022-11-26T10:01:34.823Z,20.60
2022-11-26T10:04:31.474Z,23.30
2022-11-26T10:08:03.950Z,16.25
2022-11-26T10:11:01.180Z,21.83
2022-11-26T10:14:04.274Z,18.65
2022-11-26T10:17:20.182Z,20.00
2022-11-26T10:20:21.941Z,21.88
2022-11-26T10:23:13.325Z,16.08
2022-11-26T10:26:27.170Z,24.52
2022-11-26T10:29:21.197Z,19.00
2022-11-26T10:32:14.592Z,27.88
2022-11-26T10:35:00.346Z,18.10
2022-11-26T10:37:45.351Z,24.80
2022-11-26T10:40:32.191Z,28.27
2022-11-26T10:43:21.413Z,27.00
2022-11-26T10:46:06.809Z,24.10
2022-11-26T10:48:52.172Z,32.33
2022-11-26T10:51:37.717Z,23.10
2022-11-26T10:54:35.386Z,25.83
2022-11-26T10:57:20.654Z,22.52
2022-11-26T11:00:06.460Z,26.52
2022-11-26T11:02:51.669Z,23.17
2022-11-26T11:05:37.164Z,29.65
2022-11-26T11:08:31.058Z,23.90
2022-11-26T11:11:25.773Z,17.77
2022-11-26T11:14:29.057Z,21.42
2022-11-26T11:17:39.909Z,29.42
2022-11-26T11:20:34.806Z,25.05
2022-11-26T11:23:35.020Z,25.95
2022-11-26T11:26:43.547Z,26.95
2022-11-26T11:29:28.600Z,19.88
2022-11-26T11:32:34.542Z,32.20
2022-11-26T11:35:19.583Z,26.63
2022-11-26T11:38:04.865Z,22.23
2022-11-26T11:40:50.859Z,29.92
2022-11-26T11:43:37.253Z,28.55
2022-11-26T11:46:22.472Z,23.20
2022-11-26T11:49:07.353Z,16.15
2022-11-26T11:51:58.130Z,22.65
2022-11-26T11:55:01.826Z,17.08
2022-11-26T11:58:17.796Z,22.77
2022-11-26T12:01:40.596Z,13.68
2022-11-26T12:04:56.505Z,16.15
2022-11-26T12:07:52.738Z,18.05
2022-11-26T12:11:02.403Z,17.75
2022-11-26T12:13:52.139Z,18.00
2022-11-26T12:16:42.418Z,17.42
2022-11-26T12:22:49.618Z,11.80
2022-11-26T12:25:37.469Z,21.67
2022-11-26T12:28:27.241Z,20.45
2022-11-26T12:31:24.064Z,24.55
2022-11-26T12:34:23.875Z,18.48
2022-11-26T12:37:21.617Z,22.15
2022-11-26T12:40:39.055Z,27.60
2022-11-26T12:43:43.151Z,18.92
2022-11-26T12:46:42.766Z,15.75
2022-11-26T12:49:35.647Z,15.65
2022-11-26T12:52:47.140Z,23.50
2022-11-26T12:55:41.667Z,20.33
2022-11-26T12:58:56.527Z,17.35
2022-11-26T13:01:41.545Z,14.10
2022-11-26T13:04:43.793Z,17.05
2022-11-26T13:07:41.178Z,24.17
2022-11-26T13:10:33.581Z,18.15
2022-11-26T13:13:42.369Z,14.50
2022-11-26T13:16:40.869Z,25.90
2022-11-26T13:19:34.312Z,10.60
2022-11-26T13:22:48.339Z,22.63
2022-11-26T13:26:04.737Z,14.30
2022-11-26T13:28:52.650Z,15.32
2022-11-26T13:31:50.064Z,16.83
2022-11-26T13:35:00.930Z,16.63
2022-11-26T13:37:55.133Z,19.90
2022-11-26T13:40:46.381Z,17.63
2022-11-26T13:44:07.042Z,16.73
2022-11-26T13:47:06.241Z,18.70
2022-11-26T13:50:17.523Z,15.30
2022-11-26T13:53:06.414Z,16.92
2022-11-26T13:55:59.175Z,19.90
2022-11-26T13:58:49.355Z,17.92
2022-11-26T14:01:42.145Z,16.97
2022-11-26T14:04:47.553Z,21.55
2022-11-26T14:07:37.700Z,20.37
2022-11-26T14:10:35.097Z,22.23
2022-11-26T14:13:20.027Z,17.85
2022-11-26T14:16:09.609Z,18.25
2022-11-26T14:18:58.800Z,16.67
2022-11-26T14:21:58.255Z,16.17
2022-11-26T14:24:49.735Z,25.02
2022-11-26T14:27:40.267Z,15.38
2022-11-26T14:30:27.423Z,13.52
2022-11-26T14:33:18.933Z,17.95
2022-11-26T14:36:18.382Z,15.07
2022-11-26T14:39:12.868Z,15.05
2022-11-26T14:42:04.139Z,18.65
2022-11-26T14:45:17.043Z,12.98
2022-11-26T14:48:03.982Z,16.65
2022-11-26T14:50:49.083Z,13.60
2022-11-26T14:53:35.911Z,17.95
2022-11-26T14:56:24.081Z,17.50
2022-11-26T14:59:15.246Z,19.73
2022-11-26T15:02:00.632Z,16.65
2022-11-26T15:04:46.054Z,15.88
2022-11-26T15:07:31.810Z,14.73
2022-11-26T15:10:20.123Z,13.90
2022-11-26T15:13:12.972Z,17.33
2022-11-26T15:16:03.516Z,14.93
2022-11-26T15:18:52.764Z,11.27
2022-11-26T15:21:40.732Z,16.08
2022-11-26T15:24:26.961Z,11.20
2022-11-26T15:27:29.567Z,17.13
2022-11-26T15:30:19.127Z,15.70
2022-11-26T15:35:56.769Z,15.70
2022-11-26T15:39:08.980Z,18.85
2022-11-26T15:41:56.644Z,22.73
2022-11-26T15:44:42.938Z,13.43
2022-11-26T15:47:29.073Z,17.10
2022-11-26T15:50:36.435Z,13.07
2022-11-26T15:53:28.775Z,13.23
2022-11-26T15:56:20.957Z,17.05
2022-11-26T15:59:14.823Z,19.65
2022-11-26T16:02:14.517Z,19.17
2022-11-26T16:05:03.526Z,16.60
2022-11-26T16:08:21.851Z,18.05
2022-11-26T16:11:19.323Z,20.83
2022-11-26T16:14:23.123Z,11.63
2022-11-26T16:17:16.624Z,16.42
2022-11-26T16:20:01.942Z,20.73
2022-11-26T16:22:49.743Z,15.35
2022-11-26T16:25:36.179Z,17.27
2022-11-26T16:28:21.211Z,14.85
2022-11-26T16:31:06.671Z,17.58
2022-11-26T16:33:51.971Z,12.82
2022-11-26T16:36:41.981Z,17.67
2022-11-26T16:42:23.567Z,21.00
2022-11-26T16:45:09.976Z,14.63
2022-11-26T16:47:55.743Z,23.25
2022-11-26T16:50:40.590Z,22.60
2022-11-26T16:53:25.614Z,16.35
2022-11-26T16:56:26.696Z,20.80
2022-11-26T16:59:19.341Z,20.92
2022-11-26T17:02:06.571Z,21.10
2022-11-26T17:04:52.137Z,17.30
2022-11-26T17:07:46.694Z,21.45
2022-11-26T17:10:31.867Z,19.20
2022-11-26T17:13:17.694Z,16.77
2022-11-26T17:16:04.302Z,17.70
2022-11-26T17:18:50.124Z,20.27
2022-11-26T17:21:35.234Z,22.33
2022-11-26T17:24:24.672Z,20.02
2022-11-26T17:27:15.499Z,21.00
2022-11-26T17:30:00.676Z,21.25
2022-11-26T17:32:45.797Z,15.13
2022-11-26T17:35:31.209Z,16.52
2022-11-26T17:38:21.815Z,25.60
2022-11-26T17:41:07.355Z,18.88
2022-11-26T17:43:52.644Z,25.45
2022-11-26T17:47:00.861Z,25.90
2022-11-26T17:49:42.434Z,25.88
2022-11-26T17:52:27.842Z,18.05
2022-11-26T17:55:13.557Z,21.30
2022-11-26T17:57:58.794Z,20.48
2022-11-26T18:00:43.867Z,19.50
2022-11-26T18:03:29.135Z,20.55
2022-11-26T18:06:35.851Z,16.10
2022-11-26T18:09:21.186Z,27.30
2022-11-26T18:12:08.248Z,24.83
2022-11-26T18:14:54.865Z,22.13
2022-11-26T18:17:39.805Z,12.52
2022-11-26T18:20:27.988Z,16.95
2022-11-26T18:23:13.428Z,19.33
2022-11-26T18:25:58.516Z,24.73
2022-11-26T18:28:43.513Z,21.70
2022-11-26T18:31:29.816Z,20.55
2022-11-26T18:34:14.853Z,21.50
2022-11-26T18:37:00.293Z,23.50
2022-11-26T18:39:45.542Z,21.75
2022-11-26T18:42:38.592Z,23.75
2022-11-26T18:45:24.063Z,20.70
2022-11-26T18:48:09.249Z,30.15
2022-11-26T18:50:58.110Z,17.45
2022-11-26T18:53:44.885Z,20.85
2022-11-26T18:56:29.804Z,24.10
2022-11-26T18:59:15.386Z,22.67
2022-11-26T19:02:01.322Z,19.50
2022-11-26T19:04:46.469Z,30.15
2022-11-26T19:07:33.135Z,26.35
2022-11-26T19:10:18.256Z,23.85
2022-11-26T19:13:03.994Z,23.60
2022-11-26T19:15:49.190Z,21.45
2022-11-26T19:18:35.200Z,21.60
2022-11-26T19:21:25.714Z,21.40
2022-11-26T19:24:11.596Z,23.52
2022-11-26T19:26:56.951Z,23.92
2022-11-26T19:29:42.380Z,22.75
2022-11-26T19:32:28.494Z,23.48
2022-11-26T19:35:13.974Z,21.63
2022-11-26T19:37:59.001Z,24.85
2022-11-26T19:40:44.207Z,23.90
2022-11-26T19:43:32.732Z,28.52
2022-11-26T19:46:21.480Z,23.13
2022-11-26T19:49:07.287Z,19.70
2022-11-26T19:51:53.277Z,17.77
2022-11-26T19:54:38.315Z,21.98
2022-11-26T19:57:23.208Z,23.02
2022-11-26T20:00:09.583Z,30.17
2022-11-26T20:02:54.713Z,20.23
2022-11-26T20:05:40.641Z,18.67
2022-11-26T20:08:25.547Z,22.13
2022-11-26T20:11:11.165Z,19.60
2022-11-26T20:13:57.500Z,25.13
2022-11-26T20:16:44.978Z,26.10
2022-11-26T20:19:30.059Z,23.65
2022-11-26T20:22:15.304Z,26.40
2022-11-26T20:25:00.275Z,22.83
2022-11-26T20:27:45.722Z,27.17
2022-11-26T20:30:31.524Z,20.60
2022-11-26T20:33:18.872Z,21.00
2022-11-26T20:36:09.248Z,24.13
2022-11-26T20:38:56.114Z,28.88
2022-11-26T20:41:41.386Z,23.15
2022-11-26T20:44:28.490Z,23.35
2022-11-26T20:47:13.746Z,23.70
2022-11-26T20:49:59.037Z,27.25
2022-11-26T20:52:44.002Z,24.95
2022-11-26T20:55:29.174Z,29.70
2022-11-26T20:58:14.557Z,21.20
2022-11-26T21:01:01.319Z,25.08
2022-11-26T21:03:46.946Z,22.98
2022-11-26T21:06:34.842Z,31.17
2022-11-26T21:09:20.408Z,19.58
2022-11-26T21:12:05.688Z,25.55
2022-11-26T21:14:51.394Z,27.33
2022-11-26T21:17:36.479Z,25.20
2022-11-26T21:20:21.844Z,25.42
2022-11-26T21:23:08.708Z,37.60
2022-11-26T21:25:54.276Z,23.90
2022-11-26T21:28:39.568Z,25.60
2022-11-26T21:31:26.541Z,21.10
2022-11-26T21:34:12.108Z,29.67
2022-11-26T21:36:57.269Z,24.83
2022-11-26T21:39:42.312Z,31.95
2022-11-26T21:42:27.468Z,23.45
2022-11-26T21:45:12.607Z,21.55
2022-11-26T21:47:57.846Z,22.33
2022-11-26T21:50:42.978Z,23.48
2022-11-26T21:53:27.952Z,21.38
2022-11-26T21:56:14.267Z,28.52
2022-11-26T21:59:00.819Z,23.41
2022-11-26T22:01:47.293Z,25.60
2022-11-26T22:04:32.670Z,29.45
2022-11-26T22:07:18.568Z,18.98
2022-11-26T22:10:04.192Z,25.30
2022-11-26T22:12:49.073Z,25.50
2022-11-26T22:15:34.192Z,21.42
2022-11-26T22:18:19.426Z,21.88
2022-11-26T22:21:07.302Z,23.77
2022-11-26T22:23:52.563Z,22.83
2022-11-26T22:26:38.024Z,33.47
2022-11-26T22:29:22.981Z,26.65
2022-11-26T22:32:09.795Z,27.13
2022-11-26T22:34:55.147Z,22.35
2022-11-26T22:37:40.541Z,31.15
2022-11-26T22:40:25.746Z,26.02
2022-11-26T22:43:10.900Z,22.67
2022-11-26T22:45:56.244Z,23.27
2022-11-26T22:48:42.176Z,20.17
2022-11-26T22:51:29.573Z,31.45
2022-11-26T22:54:16.353Z,27.95
2022-11-26T22:57:01.327Z,25.40
2022-11-26T22:59:46.619Z,29.27
2022-11-26T23:02:31.473Z,21.95
2022-11-26T23:05:16.519Z,24.75
2022-11-26T23:08:01.715Z,21.70
2022-11-26T23:10:48.414Z,25.58
2022-11-26T23:13:34.071Z,19.02
2022-11-26T23:16:21.677Z,23.38
2022-11-26T23:19:07.611Z,19.67
2022-11-26T23:21:52.725Z,16.33
2022-11-26T23:24:37.766Z,14.98
2022-11-26T23:27:22.760Z,16.17
2022-11-26T23:30:08.811Z,14.70
2022-11-26T23:32:53.786Z,18.95
2022-11-26T23:35:38.973Z,20.95
2022-11-26T23:38:24.317Z,20.58
2022-11-26T23:41:09.442Z,13.90
2022-11-26T23:43:54.710Z,10.27
2022-11-26T23:46:40.165Z,9.95
2022-11-26T23:49:24.955Z,12.52
2022-11-26T23:52:10.722Z,13.57
2022-11-26T23:54:56.940Z,14.95
2022-11-26T23:57:41.911Z,14.88
